Skip Navigation Links Skip Navigation Links

Current Weather

North Las Vegas, Las Vegas, Nev.

For information only: do not use for flight planning or navigation.
Latest weather
Observation time Monday, June 21, 2021 6:53 PM PDT
Local time Monday, June 21, 2021 7:20 PM PDT
Flight conditions Visual Meteorological Conditions
Winds
Wind direction West-Southwest (240°)
Wind speed 23 mph
Wind gusting to 32 mph
Peak wind speed 33 mph, 6:10 PM
Peak wind direction West-Southwest (250°)
Visibility 10 mi.
Sky condition
Ceiling unlimited
Sky clear
Temperature 106°F
Dewpoint 23°F
Altimeter 29.71 in.Hg
Derived measurements
Relative humidity 5%
Heat index 106°F
Density altitude 5444 ft.
Sea-level pressure 29.66 in.Hg
Remarks
Automated weather observing station with precipitation discriminator.
METAR KVGT 220153Z 24020G28KT 10SM CLR 41/M05 A2971 RMK AO2 PK WND 25029/0110 SLP044 T04111050

Settings

Location code

InnerDrive.Weather 4.0.6770.0 Release CLR 4.0.30319.42000
Copyright ©2018 Inner Drive Technology. All rights reserved. Portions Copyright ©1986-2018 David Braverman.

Find weather

Site navigation


Skip Navigation Links

Place info

Page info

PayPal - The safer, easier way to pay online!

Return home.

Copyright ©2021 Inner Drive Technology. Purveyors of fine, hand-crafted computer software. Page printed 2021-06-22T02:20:09 UTC.